createdAt,value
2019-06-08T00:02:26.371Z,23.00
2019-06-08T00:04:55.201Z,23.00
2019-06-08T00:07:24.002Z,23.00
2019-06-08T00:09:52.705Z,22.70
2019-06-08T00:12:21.475Z,23.50
2019-06-08T00:14:50.186Z,22.00
2019-06-08T00:17:34.318Z,22.90
2019-06-08T00:19:49.615Z,22.50
2019-06-08T00:22:19.712Z,22.80
2019-06-08T00:24:48.593Z,22.20
2019-06-08T00:27:20.234Z,22.70
2019-06-08T00:29:47.739Z,22.30
2019-06-08T00:32:16.455Z,22.20
2019-06-08T00:34:45.185Z,22.00
2019-06-08T00:37:14.573Z,21.60
2019-06-08T00:39:43.355Z,22.50
2019-06-08T00:42:12.080Z,22.00
2019-06-08T00:44:40.840Z,22.50
2019-06-08T00:47:09.658Z,21.60
2019-06-08T00:49:38.379Z,22.00
2019-06-08T00:52:07.167Z,22.20
2019-06-08T00:54:35.947Z,21.60
2019-06-08T00:57:04.896Z,20.50
2019-06-08T00:59:33.760Z,21.20
2019-06-08T01:02:02.546Z,19.60
2019-06-08T01:04:31.262Z,20.90
2019-06-08T01:07:00.053Z,20.40
2019-06-08T01:09:28.869Z,19.60
2019-06-08T01:11:57.696Z,19.20
2019-06-08T01:14:27.062Z,18.70
2019-06-08T01:16:55.992Z,18.80
2019-06-08T01:19:25.203Z,19.40
2019-06-08T01:21:54.079Z,20.10
2019-06-08T01:24:23.722Z,21.40
2019-06-08T01:26:52.655Z,21.30
2019-06-08T01:29:22.254Z,22.30
2019-06-08T01:31:51.099Z,22.60
2019-06-08T01:34:20.566Z,23.30
2019-06-08T01:36:49.534Z,23.50
2019-06-08T01:39:18.400Z,24.20
2019-06-08T01:41:47.177Z,24.10
2019-06-08T01:44:15.974Z,24.00
2019-06-08T01:46:44.721Z,24.00
2019-06-08T01:49:13.444Z,24.30
2019-06-08T01:51:42.239Z,24.50
2019-06-08T01:54:11.016Z,24.70
2019-06-08T01:56:39.816Z,24.60
2019-06-08T01:59:08.488Z,25.20
2019-06-08T02:01:37.289Z,25.70
2019-06-08T02:04:06.225Z,24.40
2019-06-08T02:06:35.029Z,24.00
2019-06-08T02:09:05.202Z,23.10
2019-06-08T02:11:34.903Z,22.70
2019-06-08T02:14:05.410Z,21.50
2019-06-08T02:16:35.364Z,21.10
2019-06-08T02:19:04.389Z,20.40
2019-06-08T02:21:33.313Z,19.30
2019-06-08T02:24:02.068Z,18.90
2019-06-08T02:26:32.091Z,18.70
2019-06-08T02:29:01.490Z,18.90
2019-06-08T02:31:30.822Z,17.00
2019-06-08T02:34:00.867Z,17.10
2019-06-08T02:36:31.588Z,17.70
2019-06-08T02:39:00.127Z,17.40
2019-06-08T02:41:29.065Z,16.00
2019-06-08T02:43:57.958Z,15.80
2019-06-08T02:46:26.706Z,15.50
2019-06-08T02:49:04.287Z,14.40
2019-06-08T02:51:26.405Z,14.30
2019-06-08T02:53:55.219Z,14.40
2019-06-08T02:56:24.689Z,14.10
2019-06-08T02:58:55.634Z,14.30
2019-06-08T03:01:24.532Z,14.20
2019-06-08T03:03:54.777Z,14.90
2019-06-08T03:06:24.981Z,15.00
2019-06-08T03:08:56.541Z,15.50
2019-06-08T03:11:26.905Z,14.60
2019-06-08T03:14:16.255Z,14.90
2019-06-08T03:16:45.025Z,14.80
2019-06-08T03:19:21.660Z,14.60
2019-06-08T03:21:44.368Z,14.30
2019-06-08T03:24:13.250Z,14.30
2019-06-08T03:26:44.171Z,15.30
2019-06-08T03:29:12.500Z,13.90
2019-06-08T03:31:51.254Z,13.00
2019-06-08T03:34:11.732Z,13.30
2019-06-08T03:36:51.248Z,13.50
2019-06-08T03:39:11.159Z,12.90
2019-06-08T03:41:40.492Z,12.60
2019-06-08T03:44:09.703Z,12.50
2019-06-08T03:46:38.818Z,12.50
2019-06-08T03:49:08.013Z,12.30
2019-06-08T03:51:40.229Z,11.20
2019-06-08T03:54:07.215Z,10.40
2019-06-08T03:56:37.883Z,10.30
2019-06-08T03:59:06.411Z,10.60
2019-06-08T04:01:35.238Z,9.90
2019-06-08T04:04:03.913Z,10.10
2019-06-08T04:06:32.654Z,10.40
2019-06-08T04:09:01.435Z,10.60
2019-06-08T04:11:30.134Z,10.60
2019-06-08T04:13:58.935Z,11.10
2019-06-08T04:16:27.582Z,10.70
2019-06-08T04:18:56.391Z,11.00
2019-06-08T04:21:25.204Z,11.20
2019-06-08T04:23:53.979Z,11.40
2019-06-08T04:26:22.738Z,11.20
2019-06-08T04:28:51.493Z,11.30
2019-06-08T04:31:20.271Z,10.80
2019-06-08T04:33:50.738Z,11.00
2019-06-08T04:36:19.580Z,11.00
2019-06-08T04:38:50.132Z,10.10
2019-06-08T04:41:18.831Z,9.60
2019-06-08T04:43:49.663Z,10.30
2019-06-08T04:46:18.164Z,11.20
2019-06-08T04:48:47.973Z,10.50
2019-06-08T04:51:17.332Z,10.50
2019-06-08T04:53:47.186Z,10.00
2019-06-08T04:56:16.574Z,9.80
2019-06-08T04:58:46.812Z,10.10
2019-06-08T05:01:15.751Z,10.30
2019-06-08T05:03:45.600Z,9.80
2019-06-08T05:06:15.119Z,10.00
2019-06-08T05:08:45.268Z,10.30
2019-06-08T05:11:14.278Z,10.20
2019-06-08T05:13:43.375Z,10.80
2019-06-08T05:16:12.399Z,10.40
2019-06-08T05:18:41.375Z,10.50
2019-06-08T05:21:10.274Z,10.70
2019-06-08T05:23:39.284Z,10.80
2019-06-08T05:26:08.181Z,10.60
2019-06-08T05:28:36.922Z,10.80
2019-06-08T05:31:05.645Z,10.60
2019-06-08T05:33:34.394Z,10.90
2019-06-08T05:36:03.185Z,10.60
2019-06-08T05:38:31.929Z,10.90
2019-06-08T05:41:00.638Z,10.90
2019-06-08T05:43:29.307Z,11.30
2019-06-08T05:45:58.009Z,10.30
2019-06-08T05:48:26.708Z,10.70
2019-06-08T05:51:03.563Z,11.10
2019-06-08T05:53:26.231Z,10.90
2019-06-08T05:55:55.038Z,10.80
2019-06-08T05:58:23.748Z,10.60
2019-06-08T06:00:52.516Z,11.40
2019-06-08T06:03:21.341Z,11.40
2019-06-08T06:05:50.786Z,11.50
2019-06-08T06:08:19.859Z,11.10
2019-06-08T06:10:48.962Z,10.90
2019-06-08T06:13:17.933Z,11.10
2019-06-08T06:15:47.232Z,10.30
2019-06-08T06:18:16.120Z,10.10
2019-06-08T06:20:45.424Z,10.30
2019-06-08T06:23:14.294Z,10.40
2019-06-08T06:25:43.404Z,10.10
2019-06-08T06:28:12.252Z,10.30
2019-06-08T06:30:41.539Z,10.40
2019-06-08T06:33:10.479Z,10.00
2019-06-08T06:35:39.273Z,9.50
2019-06-08T06:38:08.048Z,9.60
2019-06-08T06:40:36.827Z,8.50
2019-06-08T06:43:05.684Z,8.20
2019-06-08T06:45:34.465Z,7.70
2019-06-08T06:48:03.256Z,7.90
2019-06-08T06:50:33.142Z,8.30
2019-06-08T06:53:01.819Z,7.80
2019-06-08T06:55:30.557Z,8.50
2019-06-08T06:57:59.295Z,8.00
2019-06-08T07:00:30.375Z,7.70
2019-06-08T07:03:00.247Z,8.30
2019-06-08T07:05:29.011Z,7.40
2019-06-08T07:07:58.071Z,7.30
2019-06-08T07:10:26.911Z,7.50
2019-06-08T07:12:55.698Z,7.60
2019-06-08T07:15:26.963Z,6.80
2019-06-08T07:17:56.784Z,7.30
2019-06-08T07:20:25.853Z,7.90
2019-06-08T07:22:55.259Z,8.10
2019-06-08T07:25:24.129Z,8.00
2019-06-08T07:27:52.937Z,8.10
2019-06-08T07:30:21.967Z,8.70
2019-06-08T07:32:51.007Z,7.90
2019-06-08T07:35:19.932Z,7.90
2019-06-08T07:37:49.001Z,7.50
2019-06-08T07:40:19.088Z,8.10
2019-06-08T07:42:49.365Z,7.70
2019-06-08T07:45:18.576Z,7.60
2019-06-08T07:47:47.887Z,6.80
2019-06-08T07:50:17.306Z,6.80
2019-06-08T07:52:46.108Z,6.80
2019-06-08T07:55:15.125Z,7.00
2019-06-08T07:57:43.920Z,6.60
2019-06-08T08:00:12.975Z,6.30
2019-06-08T08:02:41.753Z,6.60
2019-06-08T08:05:10.955Z,6.50
2019-06-08T08:07:39.740Z,5.20
2019-06-08T08:10:09.394Z,5.00
2019-06-08T08:12:38.235Z,5.10
2019-06-08T08:15:07.670Z,6.00
2019-06-08T08:17:37.119Z,5.60
2019-06-08T08:20:07.409Z,5.80
2019-06-08T08:22:38.178Z,5.00
2019-06-08T08:25:08.355Z,5.00
2019-06-08T08:27:37.719Z,5.80
2019-06-08T08:30:08.491Z,6.80
2019-06-08T08:32:38.106Z,6.10
2019-06-08T08:35:08.765Z,6.00
2019-06-08T08:37:38.158Z,6.00
2019-06-08T08:40:11.490Z,7.10
2019-06-08T08:42:40.233Z,7.60
2019-06-08T08:45:09.514Z,7.70
2019-06-08T08:47:38.936Z,7.60
2019-06-08T08:50:08.512Z,6.60
2019-06-08T08:52:40.509Z,6.10
2019-06-08T08:55:08.560Z,6.00
2019-06-08T08:57:38.543Z,5.80
2019-06-08T09:00:09.060Z,5.00
2019-06-08T09:02:38.832Z,5.30
2019-06-08T09:05:08.679Z,3.20
2019-06-08T09:07:38.500Z,2.80
2019-06-08T09:10:11.185Z,1.00
2019-06-08T09:12:38.998Z,1.00
2019-06-08T09:15:08.577Z,2.00
2019-06-08T09:17:38.793Z,2.20
2019-06-08T09:20:13.119Z,2.80
2019-06-08T09:22:52.488Z,3.80
2019-06-08T09:25:13.335Z,4.20
2019-06-08T09:27:40.700Z,4.90
2019-06-08T09:30:09.862Z,4.00
2019-06-08T09:32:38.648Z,3.70
2019-06-08T09:35:09.396Z,2.30
2019-06-08T09:37:38.451Z,1.00
2019-06-08T09:40:07.647Z,1.00
2019-06-08T09:42:36.532Z,1.00
2019-06-08T09:45:09.002Z,1.00
2019-06-08T09:47:38.119Z,1.80
2019-06-08T09:50:09.352Z,1.40
2019-06-08T09:52:40.999Z,2.40
2019-06-08T09:55:09.691Z,2.80
2019-06-08T09:57:38.956Z,2.30
2019-06-08T10:00:17.887Z,2.00
2019-06-08T10:02:40.349Z,1.20
2019-06-08T10:05:10.073Z,1.40
2019-06-08T10:08:00.481Z,1.70
2019-06-08T10:10:28.606Z,1.90
2019-06-08T10:13:01.292Z,1.10
2019-06-08T10:15:28.053Z,1.00
2019-06-08T10:17:56.974Z,1.00
2019-06-08T10:20:25.776Z,1.20
2019-06-08T10:22:59.320Z,1.50
2019-06-08T10:25:28.664Z,1.90
2019-06-08T10:28:00.555Z,1.70
2019-06-08T10:30:30.113Z,1.50
2019-06-08T10:33:00.587Z,1.80
2019-06-08T10:35:29.415Z,2.30
2019-06-08T10:38:02.793Z,1.50
2019-06-08T10:40:28.855Z,1.50
2019-06-08T10:43:00.691Z,1.70
2019-06-08T10:45:28.679Z,2.00
2019-06-08T10:47:59.190Z,2.00
2019-06-08T10:50:28.903Z,2.10
2019-06-08T10:53:01.284Z,2.00
2019-06-08T10:55:28.226Z,2.00
2019-06-08T10:57:58.109Z,1.60
2019-06-08T11:00:28.249Z,1.50
2019-06-08T11:03:01.325Z,1.20
2019-06-08T11:05:28.137Z,1.90
2019-06-08T11:07:59.291Z,1.00
2019-06-08T11:10:27.870Z,1.00
2019-06-08T11:12:58.734Z,1.00
2019-06-08T11:15:29.599Z,1.00
2019-06-08T11:18:01.535Z,1.00
2019-06-08T11:20:30.243Z,1.00
2019-06-08T11:23:00.772Z,1.00
2019-06-08T11:25:30.018Z,1.00
2019-06-08T11:27:59.898Z,1.00
2019-06-08T11:30:30.619Z,1.00
2019-06-08T11:32:59.932Z,1.10
2019-06-08T11:35:28.827Z,1.00
2019-06-08T11:37:58.565Z,1.00
2019-06-08T11:40:28.125Z,1.00
2019-06-08T11:42:58.597Z,1.00
2019-06-08T11:45:27.375Z,1.00
2019-06-08T11:47:58.434Z,1.00
2019-06-08T11:50:29.474Z,1.00
2019-06-08T11:53:00.235Z,1.00
2019-06-08T11:55:28.751Z,1.40
2019-06-08T11:57:58.600Z,1.00
2019-06-08T12:00:31.058Z,1.10
2019-06-08T12:03:00.048Z,1.10
2019-06-08T12:05:28.841Z,1.00
2019-06-08T12:07:57.855Z,1.00
2019-06-08T12:10:28.530Z,1.20
2019-06-08T12:12:57.477Z,1.50
2019-06-08T12:15:28.171Z,1.70
2019-06-08T12:17:58.645Z,2.50
2019-06-08T12:20:27.990Z,2.40
2019-06-08T12:22:56.954Z,1.90
2019-06-08T12:25:25.759Z,1.60
2019-06-08T12:27:54.707Z,1.40
2019-06-08T12:30:26.100Z,1.50
2019-06-08T12:32:53.946Z,2.10
2019-06-08T12:35:22.743Z,2.10
2019-06-08T12:37:51.708Z,1.50
2019-06-08T12:40:24.927Z,1.50
2019-06-08T12:42:53.956Z,1.50
2019-06-08T12:45:22.830Z,1.30
2019-06-08T12:47:51.817Z,1.00
2019-06-08T12:50:20.568Z,1.00
2019-06-08T12:52:49.822Z,1.00
2019-06-08T12:55:24.700Z,1.00
2019-06-08T12:57:51.544Z,1.00
2019-06-08T13:00:21.493Z,1.00
2019-06-08T13:02:50.947Z,1.00
2019-06-08T13:05:22.631Z,1.00
2019-06-08T13:07:50.971Z,1.00
2019-06-08T13:10:23.915Z,1.00
2019-06-08T13:12:50.473Z,1.00
2019-06-08T13:15:21.894Z,1.00
2019-06-08T13:17:50.562Z,1.00
2019-06-08T13:20:22.331Z,1.00
2019-06-08T13:22:51.854Z,1.00
2019-06-08T13:25:36.430Z,1.00
2019-06-08T13:27:51.183Z,1.00
2019-06-08T13:30:25.820Z,1.00
2019-06-08T13:32:51.716Z,1.00
2019-06-08T13:35:22.409Z,1.00
2019-06-08T13:37:51.403Z,1.00
2019-06-08T13:40:23.437Z,1.00
2019-06-08T13:42:51.233Z,1.00
2019-06-08T13:45:23.324Z,1.00
2019-06-08T13:47:51.296Z,1.00
2019-06-08T13:50:22.055Z,1.00
2019-06-08T13:52:52.224Z,1.00
2019-06-08T13:55:43.538Z,1.00
2019-06-08T13:57:51.563Z,1.00
2019-06-08T14:00:23.793Z,1.00
2019-06-08T14:02:53.738Z,1.00
2019-06-08T14:05:28.512Z,1.00
2019-06-08T14:07:58.847Z,1.00
2019-06-08T14:10:29.502Z,1.00
2019-06-08T14:12:58.648Z,1.00
2019-06-08T14:15:28.249Z,1.00
2019-06-08T14:17:58.593Z,1.00
2019-06-08T14:20:32.527Z,1.00
2019-06-08T14:22:58.860Z,1.00
2019-06-08T14:25:28.885Z,1.00
2019-06-08T14:27:58.354Z,1.00
2019-06-08T14:30:31.026Z,1.00
2019-06-08T14:33:00.586Z,1.00
2019-06-08T14:35:29.459Z,1.00
2019-06-08T14:38:00.784Z,1.00
2019-06-08T14:40:32.692Z,1.00
2019-06-08T14:43:00.920Z,1.00
2019-06-08T14:45:31.039Z,1.00
2019-06-08T14:48:00.171Z,1.00
2019-06-08T14:50:30.688Z,1.00
2019-06-08T14:53:00.197Z,1.00
2019-06-08T14:55:32.011Z,1.00
2019-06-08T14:57:59.716Z,1.00
2019-06-08T15:00:29.711Z,1.00
2019-06-08T15:02:59.255Z,1.00
2019-06-08T15:05:30.545Z,1.00
2019-06-08T15:08:01.016Z,1.00
2019-06-08T15:10:31.161Z,1.00
2019-06-08T15:13:00.031Z,1.00
2019-06-08T15:15:31.784Z,1.00
2019-06-08T15:17:59.677Z,1.00
2019-06-08T15:20:28.724Z,1.00
2019-06-08T15:22:59.515Z,1.00
2019-06-08T15:25:30.010Z,1.00
2019-06-08T15:28:01.361Z,1.00
2019-06-08T15:30:31.470Z,1.00
2019-06-08T15:33:00.708Z,1.00
2019-06-08T15:35:29.546Z,1.00
2019-06-08T15:37:58.654Z,1.00
2019-06-08T15:40:27.887Z,1.00
2019-06-08T15:42:58.609Z,1.00
2019-06-08T15:45:30.901Z,1.40
2019-06-08T15:47:58.708Z,1.00
2019-06-08T15:50:28.564Z,1.00
2019-06-08T15:52:59.813Z,1.10
2019-06-08T15:55:31.292Z,1.00
2019-06-08T15:57:58.969Z,1.00
2019-06-08T16:00:30.032Z,1.10
2019-06-08T16:02:58.816Z,1.00
2019-06-08T16:05:27.839Z,1.00
2019-06-08T16:07:59.699Z,1.00
2019-06-08T16:10:28.495Z,2.10
2019-06-08T16:12:57.368Z,3.90
2019-06-08T16:15:26.848Z,6.50
2019-06-08T16:17:55.925Z,8.60
2019-06-08T16:20:25.322Z,9.60
2019-06-08T16:22:54.291Z,9.50
2019-06-08T16:25:23.123Z,9.80
2019-06-08T16:27:51.891Z,9.70
2019-06-08T16:30:21.067Z,9.00
2019-06-08T16:32:51.304Z,8.80
2019-06-08T16:35:20.162Z,9.10
2019-06-08T16:37:50.608Z,8.30
2019-06-08T16:40:19.813Z,7.40
2019-06-08T16:42:48.574Z,7.10
2019-06-08T16:45:19.042Z,7.00
2019-06-08T16:47:47.920Z,5.90
2019-06-08T16:50:24.358Z,6.30
2019-06-08T16:52:48.315Z,8.50
2019-06-08T16:55:17.845Z,9.40
2019-06-08T16:57:46.612Z,8.50
2019-06-08T17:00:36.631Z,7.60
2019-06-08T17:02:46.953Z,7.90
2019-06-08T17:05:15.710Z,7.60
2019-06-08T17:07:44.544Z,7.70
2019-06-08T17:10:13.842Z,7.90
2019-06-08T17:12:42.697Z,8.00
2019-06-08T17:15:14.123Z,8.30
2019-06-08T17:17:43.031Z,9.00
2019-06-08T17:20:13.748Z,16.70
2019-06-08T17:22:42.634Z,17.50
2019-06-08T17:25:11.843Z,17.70
2019-06-08T17:27:40.859Z,17.00
2019-06-08T17:30:11.102Z,15.20
2019-06-08T17:32:40.581Z,15.70
2019-06-08T17:35:10.790Z,16.60
2019-06-08T17:37:40.131Z,17.80
2019-06-08T17:40:09.686Z,19.50
2019-06-08T17:42:39.627Z,19.00
2019-06-08T17:45:09.014Z,18.30
2019-06-08T17:47:38.540Z,19.20
2019-06-08T17:50:07.930Z,20.50
2019-06-08T17:52:37.149Z,20.50
2019-06-08T17:55:07.769Z,20.50
2019-06-08T17:57:47.184Z,20.30
2019-06-08T18:00:09.915Z,22.00
2019-06-08T18:02:43.648Z,21.90
2019-06-08T18:05:12.743Z,23.30
2019-06-08T18:07:43.887Z,23.70
2019-06-08T18:10:12.180Z,24.20
2019-06-08T18:12:44.298Z,24.80
2019-06-08T18:15:11.795Z,25.10
2019-06-08T18:17:42.205Z,25.20
2019-06-08T18:20:13.737Z,25.60
2019-06-08T18:22:44.382Z,26.00
2019-06-08T18:25:17.185Z,25.80
2019-06-08T18:28:02.937Z,26.20
2019-06-08T18:30:18.934Z,25.70
2019-06-08T18:32:48.568Z,25.30
2019-06-08T18:35:18.265Z,25.30
2019-06-08T18:37:48.642Z,23.90
2019-06-08T18:40:21.924Z,23.80
2019-06-08T18:42:50.788Z,24.40
2019-06-08T18:45:19.705Z,25.00
2019-06-08T18:47:48.679Z,25.70
2019-06-08T18:50:17.752Z,26.30
2019-06-08T18:52:49.430Z,27.10
2019-06-08T18:55:18.211Z,28.10
2019-06-08T18:57:49.018Z,28.80
2019-06-08T19:00:18.653Z,29.80
2019-06-08T19:02:52.236Z,30.40
2019-06-08T19:05:21.123Z,31.40
2019-06-08T19:07:51.634Z,32.60
2019-06-08T19:10:22.000Z,33.70
2019-06-08T19:12:50.780Z,34.40
2019-06-08T19:15:22.416Z,34.70
2019-06-08T19:17:54.428Z,35.50
2019-06-08T19:20:21.755Z,36.70
2019-06-08T19:22:54.112Z,37.70
2019-06-08T19:25:21.375Z,38.20
2019-06-08T19:27:53.205Z,39.00
2019-06-08T19:30:24.608Z,39.70
2019-06-08T19:32:52.456Z,40.50
2019-06-08T19:35:21.397Z,41.60
2019-06-08T19:37:53.704Z,42.00
2019-06-08T19:40:20.791Z,43.00
2019-06-08T19:42:57.167Z,44.30
2019-06-08T19:45:20.113Z,45.00
2019-06-08T19:47:49.024Z,46.20
2019-06-08T19:50:19.390Z,46.80
2019-06-08T19:52:52.259Z,45.70
2019-06-08T19:55:18.699Z,44.50
2019-06-08T19:57:49.072Z,42.80
2019-06-08T20:00:18.816Z,41.60
2019-06-08T20:02:51.920Z,40.90
2019-06-08T20:05:18.247Z,40.20
2019-06-08T20:07:47.118Z,39.80
2019-06-08T20:10:17.695Z,39.90
2019-06-08T20:12:48.325Z,39.60
2019-06-08T20:15:18.589Z,39.80
2019-06-08T20:17:48.879Z,39.50
2019-06-08T20:20:18.398Z,39.80
2019-06-08T20:22:50.352Z,39.80
2019-06-08T20:25:18.179Z,39.80
2019-06-08T20:27:49.868Z,40.50
2019-06-08T20:30:19.238Z,40.60
2019-06-08T20:32:50.761Z,39.70
2019-06-08T20:35:18.635Z,40.50
2019-06-08T20:37:47.894Z,40.80
2019-06-08T20:40:18.019Z,41.40
2019-06-08T20:42:49.949Z,42.50
2019-06-08T20:45:17.719Z,42.90
2019-06-08T20:47:49.463Z,43.00
2019-06-08T20:50:17.695Z,43.50
2019-06-08T20:52:49.292Z,42.90
2019-06-08T20:55:20.265Z,43.30
2019-06-08T20:57:49.766Z,42.50
2019-06-08T21:00:20.907Z,42.00
2019-06-08T21:02:51.493Z,41.00
2019-06-08T21:05:20.333Z,39.40
2019-06-08T21:07:52.241Z,39.30
2019-06-08T21:10:19.645Z,39.30
2019-06-08T21:12:50.393Z,39.20
2019-06-08T21:15:19.856Z,39.20
2019-06-08T21:17:50.652Z,39.20
2019-06-08T21:20:19.172Z,39.70
2019-06-08T21:22:50.935Z,40.30
2019-06-08T21:25:18.526Z,40.70
2019-06-08T21:27:48.526Z,41.80
2019-06-08T21:30:23.847Z,41.70
2019-06-08T21:32:51.694Z,42.20
2019-06-08T21:35:19.127Z,43.00
2019-06-08T21:37:50.938Z,43.50
2019-06-08T21:40:18.415Z,44.60
2019-06-08T21:42:48.822Z,45.30
2019-06-08T21:45:18.973Z,46.30
2019-06-08T21:47:50.134Z,46.90
2019-06-08T21:50:18.709Z,47.90
2019-06-08T21:52:50.250Z,48.80
2019-06-08T21:55:18.215Z,49.40
2019-06-08T21:57:49.502Z,50.60
2019-06-08T22:00:35.873Z,50.80
2019-06-08T22:02:49.673Z,51.20
2019-06-08T22:05:18.603Z,52.70
2019-06-08T22:07:47.621Z,53.30
2019-06-08T22:10:17.935Z,53.70
2019-06-08T22:12:48.390Z,54.20
2019-06-08T22:15:18.442Z,54.50
2019-06-08T22:17:47.746Z,54.90
2019-06-08T22:20:18.650Z,55.10
2019-06-08T22:22:47.536Z,55.90
2019-06-08T22:25:17.582Z,56.50
2019-06-08T22:27:46.517Z,57.40
2019-06-08T22:30:32.365Z,58.20
2019-06-08T22:32:47.450Z,58.30
2019-06-08T22:35:16.557Z,58.80
2019-06-08T22:37:47.903Z,59.70
2019-06-08T22:40:17.558Z,60.00
2019-06-08T22:42:48.071Z,60.80
2019-06-08T22:45:17.722Z,61.20
2019-06-08T22:47:47.755Z,62.00
2019-06-08T22:50:18.555Z,62.20
2019-06-08T22:52:47.818Z,62.20
2019-06-08T22:55:18.612Z,62.20
2019-06-08T22:57:47.933Z,62.00
2019-06-08T23:00:21.730Z,62.50
2019-06-08T23:02:49.253Z,62.90
2019-06-08T23:05:18.649Z,62.90
2019-06-08T23:07:48.788Z,63.10
2019-06-08T23:10:18.310Z,63.00
2019-06-08T23:12:47.309Z,63.10
2019-06-08T23:15:18.351Z,63.10
2019-06-08T23:17:47.934Z,63.00
2019-06-08T23:20:18.581Z,63.00
2019-06-08T23:22:47.672Z,63.30
2019-06-08T23:25:18.353Z,63.50
2019-06-08T23:27:48.389Z,63.90
2019-06-08T23:30:18.661Z,64.00
2019-06-08T23:32:48.104Z,64.30
2019-06-08T23:35:18.203Z,64.60
2019-06-08T23:37:47.801Z,64.80
2019-06-08T23:40:18.389Z,65.20
2019-06-08T23:42:47.789Z,65.50
2019-06-08T23:45:17.688Z,65.90
2019-06-08T23:47:48.086Z,65.90
2019-06-08T23:50:17.958Z,66.90
2019-06-08T23:52:47.762Z,67.50
2019-06-08T23:55:18.129Z,68.00
2019-06-08T23:57:47.228Z,69.00
